createdAt,value
2018-01-31T01:53:46.044Z,1.11
2018-01-31T01:56:13.798Z,1.16
2018-01-31T01:58:41.536Z,1.06
2018-01-31T02:01:09.204Z,1.08
2018-01-31T02:03:36.965Z,1.02
2018-01-31T02:06:04.659Z,0.96
2018-01-31T02:08:32.491Z,0.97
2018-01-31T02:11:00.247Z,0.91
2018-01-31T02:13:27.988Z,0.90
2018-01-31T02:15:55.668Z,0.98
2018-01-31T02:18:23.359Z,0.88
2018-01-31T02:20:51.111Z,0.86
2018-01-31T02:23:18.798Z,0.85
2018-01-31T02:25:46.488Z,0.91
2018-01-31T02:28:14.242Z,0.89
2018-01-31T02:30:41.925Z,0.90
2018-01-31T02:33:09.670Z,1.01
2018-01-31T02:35:37.445Z,1.07
2018-01-31T02:38:05.143Z,1.19
2018-01-31T02:40:32.856Z,1.15
2018-01-31T02:43:00.617Z,1.15
2018-01-31T02:45:28.371Z,1.30
2018-01-31T02:47:56.079Z,1.16
2018-01-31T02:50:23.789Z,1.20
2018-01-31T02:52:51.543Z,1.14
2018-01-31T02:55:19.305Z,1.04
2018-01-31T02:57:47.976Z,0.96
2018-01-31T03:00:15.872Z,1.20
2018-01-31T03:02:43.724Z,1.40
2018-01-31T03:05:11.527Z,1.47
2018-01-31T03:07:39.368Z,1.25
2018-01-31T03:10:07.051Z,1.01
2018-01-31T03:12:34.780Z,0.98
2018-01-31T03:15:02.518Z,1.01
2018-01-31T03:17:30.187Z,1.03
2018-01-31T03:19:57.999Z,1.02
2018-01-31T03:22:25.739Z,1.19
2018-01-31T03:24:53.390Z,1.22
2018-01-31T03:27:21.148Z,1.17
2018-01-31T03:29:48.817Z,1.21
2018-01-31T03:32:16.548Z,1.24
2018-01-31T03:34:44.305Z,1.27
2018-01-31T03:37:12.129Z,1.17
2018-01-31T03:39:39.832Z,1.02
2018-01-31T03:42:07.542Z,0.98
2018-01-31T03:44:35.291Z,1.04
2018-01-31T03:47:02.973Z,1.00
2018-01-31T03:49:30.811Z,0.89
2018-01-31T03:51:58.517Z,0.88
2018-01-31T03:54:26.262Z,0.97
2018-01-31T03:56:54.009Z,1.11
2018-01-31T03:59:21.683Z,1.12
2018-01-31T04:01:49.469Z,1.16
2018-01-31T04:04:17.234Z,1.14
2018-01-31T04:06:45.451Z,1.20
2018-01-31T04:09:13.152Z,1.19
2018-01-31T04:11:40.889Z,1.15
2018-01-31T04:14:08.571Z,1.03
2018-01-31T04:16:36.324Z,1.01
2018-01-31T04:19:04.067Z,0.97
2018-01-31T04:21:31.790Z,1.13
2018-01-31T04:23:59.563Z,1.17
2018-01-31T04:26:27.327Z,1.14
2018-01-31T04:28:55.067Z,1.04
2018-01-31T04:31:22.757Z,1.01
2018-01-31T04:33:50.519Z,1.11
2018-01-31T04:36:18.242Z,1.12
2018-01-31T04:38:45.915Z,1.12
2018-01-31T04:41:13.666Z,1.14
2018-01-31T04:43:41.412Z,1.25
2018-01-31T04:46:09.160Z,1.28
2018-01-31T04:48:36.856Z,1.27
2018-01-31T04:51:04.606Z,1.31
2018-01-31T04:53:32.371Z,1.26
2018-01-31T04:56:00.315Z,1.22
2018-01-31T04:58:28.056Z,1.07
2018-01-31T05:00:55.840Z,1.03
2018-01-31T05:03:24.573Z,1.06
2018-01-31T05:05:52.292Z,1.14
2018-01-31T05:08:20.046Z,1.21
2018-01-31T05:10:47.793Z,1.24
2018-01-31T05:13:15.544Z,1.28
2018-01-31T05:15:43.312Z,1.32
2018-01-31T05:18:11.058Z,1.35
2018-01-31T05:20:38.787Z,1.34
2018-01-31T05:23:06.527Z,1.30
2018-01-31T05:25:34.231Z,1.30
2018-01-31T05:28:01.987Z,1.33
2018-01-31T05:30:30.789Z,1.36
2018-01-31T05:32:58.573Z,1.36
2018-01-31T05:35:26.251Z,1.41
2018-01-31T05:37:54.045Z,1.42
2018-01-31T05:40:21.732Z,1.42
2018-01-31T05:42:50.456Z,1.39
2018-01-31T05:45:18.219Z,1.37
2018-01-31T05:47:45.889Z,1.30
2018-01-31T05:50:13.690Z,1.24
2018-01-31T05:52:41.455Z,1.21
2018-01-31T05:55:09.317Z,1.20
2018-01-31T05:57:37.035Z,1.24
2018-01-31T06:00:04.818Z,1.18
2018-01-31T06:02:32.515Z,1.14
2018-01-31T06:05:00.289Z,1.13
2018-01-31T06:07:28.027Z,1.18
2018-01-31T06:09:55.758Z,1.15
2018-01-31T06:12:23.467Z,1.15
2018-01-31T06:14:51.199Z,1.21
2018-01-31T06:17:18.871Z,1.15
2018-01-31T06:19:46.615Z,1.18
2018-01-31T06:22:14.287Z,1.17
2018-01-31T06:24:41.996Z,1.19
2018-01-31T06:27:10.146Z,1.15
2018-01-31T06:29:38.228Z,1.18
2018-01-31T06:32:05.994Z,1.25
2018-01-31T06:34:33.688Z,1.23
2018-01-31T06:37:01.456Z,1.23
2018-01-31T06:39:29.145Z,1.29
2018-01-31T06:41:56.858Z,1.28
2018-01-31T06:44:24.652Z,1.30
2018-01-31T06:46:52.365Z,1.28
2018-01-31T06:49:20.117Z,1.29
2018-01-31T06:51:48.005Z,1.41
2018-01-31T06:54:15.733Z,1.19
2018-01-31T06:56:43.534Z,1.18
2018-01-31T06:59:11.500Z,1.24
2018-01-31T07:01:39.263Z,1.18
2018-01-31T07:04:07.008Z,1.23
2018-01-31T07:06:34.777Z,1.27
2018-01-31T07:09:02.462Z,1.28
2018-01-31T07:11:30.237Z,1.35
2018-01-31T07:13:58.046Z,1.25
2018-01-31T07:16:25.837Z,1.31
2018-01-31T07:18:53.597Z,1.19
2018-01-31T07:21:21.304Z,1.26
2018-01-31T07:23:49.143Z,1.31
2018-01-31T07:26:16.842Z,1.34
2018-01-31T07:28:44.584Z,1.23
2018-01-31T07:31:12.308Z,1.32
2018-01-31T07:33:39.972Z,1.39
2018-01-31T07:36:07.866Z,1.41
2018-01-31T07:38:35.666Z,1.30
2018-01-31T07:41:03.437Z,1.12
2018-01-31T07:43:31.117Z,1.16
2018-01-31T07:45:58.900Z,1.14
2018-01-31T07:48:26.654Z,1.35
2018-01-31T07:50:54.426Z,1.23
2018-01-31T07:53:22.099Z,1.23
2018-01-31T07:55:49.920Z,1.25
2018-01-31T07:58:17.683Z,1.36
2018-01-31T08:00:45.353Z,1.52
2018-01-31T08:03:13.149Z,1.68
2018-01-31T08:05:40.859Z,1.71
2018-01-31T08:08:08.646Z,1.71
2018-01-31T08:10:36.359Z,1.87
2018-01-31T08:13:04.062Z,1.92
2018-01-31T08:15:31.825Z,1.99
2018-01-31T08:17:59.516Z,1.94
2018-01-31T08:20:27.273Z,1.98
2018-01-31T08:22:55.022Z,2.13
2018-01-31T08:25:22.750Z,2.29
2018-01-31T08:27:50.522Z,2.35
2018-01-31T08:30:18.236Z,2.47
2018-01-31T08:32:45.985Z,2.69
2018-01-31T08:35:13.710Z,2.81
2018-01-31T08:37:41.561Z,2.99
2018-01-31T08:40:09.275Z,3.32
2018-01-31T08:42:37.160Z,3.62
2018-01-31T08:45:04.859Z,3.76
2018-01-31T08:47:32.856Z,4.01
2018-01-31T08:50:00.715Z,4.11
2018-01-31T08:52:28.410Z,4.14
2018-01-31T08:54:56.252Z,4.40
2018-01-31T08:57:23.973Z,4.83
2018-01-31T08:59:51.680Z,4.78
2018-01-31T09:02:19.395Z,4.58
2018-01-31T09:04:47.170Z,4.65
2018-01-31T09:07:14.965Z,4.74
2018-01-31T09:09:42.646Z,4.84
2018-01-31T09:12:10.790Z,4.49
2018-01-31T09:14:38.773Z,4.55
2018-01-31T09:17:06.555Z,4.92
2018-01-31T09:19:34.245Z,4.68
2018-01-31T09:22:02.087Z,4.58
2018-01-31T09:24:29.828Z,4.18
2018-01-31T09:26:57.503Z,4.32
2018-01-31T09:29:25.341Z,4.41
2018-01-31T09:31:53.090Z,4.65
2018-01-31T09:34:20.807Z,4.92
2018-01-31T09:36:48.512Z,5.18
2018-01-31T09:39:16.376Z,4.92
2018-01-31T09:41:44.140Z,5.08
2018-01-31T09:44:11.870Z,5.28
2018-01-31T09:46:39.610Z,5.86
2018-01-31T09:49:07.282Z,6.38
2018-01-31T09:51:35.055Z,6.16
2018-01-31T09:54:02.794Z,5.98
2018-01-31T09:56:30.565Z,5.46
2018-01-31T09:58:59.139Z,5.28
2018-01-31T10:01:26.800Z,6.19
2018-01-31T10:03:54.550Z,5.70
2018-01-31T10:06:22.244Z,6.19
2018-01-31T10:08:49.979Z,7.08
2018-01-31T10:11:17.768Z,7.00
2018-01-31T10:13:45.525Z,7.09
2018-01-31T10:16:13.797Z,7.79
2018-01-31T10:18:41.553Z,7.98
2018-01-31T10:21:09.269Z,8.48
2018-01-31T10:23:36.953Z,7.78
2018-01-31T10:26:04.686Z,6.97
2018-01-31T10:28:32.560Z,7.49
2018-01-31T10:31:00.235Z,7.40
2018-01-31T10:33:28.024Z,7.77
2018-01-31T10:35:55.699Z,8.09
2018-01-31T10:38:23.392Z,7.88
2018-01-31T10:40:51.114Z,7.99
2018-01-31T10:43:18.808Z,8.32
2018-01-31T10:45:46.553Z,8.14
2018-01-31T10:48:14.244Z,8.34
2018-01-31T10:50:41.930Z,8.27
2018-01-31T10:53:09.686Z,8.71
2018-01-31T10:58:05.232Z,9.05
2018-01-31T11:00:33.920Z,9.25
2018-01-31T11:03:01.696Z,10.69
2018-01-31T11:05:29.390Z,9.78
2018-01-31T11:07:57.150Z,9.09
2018-01-31T11:10:24.856Z,8.81
2018-01-31T11:12:52.643Z,9.27
2018-01-31T11:15:20.335Z,10.38
2018-01-31T11:17:48.095Z,10.13
2018-01-31T11:20:15.952Z,9.33
2018-01-31T11:22:43.762Z,10.01
2018-01-31T11:25:11.533Z,11.54
2018-01-31T11:27:39.394Z,11.87
2018-01-31T11:30:07.159Z,10.01
2018-01-31T11:32:34.854Z,9.49
2018-01-31T11:35:02.611Z,9.73
2018-01-31T11:37:30.304Z,9.22
2018-01-31T11:39:58.059Z,9.12
2018-01-31T11:42:25.739Z,9.47
2018-01-31T11:44:53.464Z,8.84
2018-01-31T11:47:21.134Z,9.01
2018-01-31T11:49:48.881Z,9.15
2018-01-31T11:52:16.698Z,8.78
2018-01-31T11:54:44.456Z,9.28
2018-01-31T11:57:12.174Z,10.27
2018-01-31T11:59:40.042Z,9.41
2018-01-31T12:02:07.759Z,9.39
2018-01-31T12:04:35.542Z,9.55
2018-01-31T12:07:03.496Z,9.54
2018-01-31T12:09:39.966Z,8.88
2018-01-31T12:12:07.677Z,9.19
2018-01-31T12:14:47.025Z,9.28
2018-01-31T12:17:14.841Z,9.76
2018-01-31T12:20:02.260Z,9.84
2018-01-31T12:22:41.864Z,11.13
2018-01-31T12:25:21.404Z,9.87
2018-01-31T12:28:00.997Z,10.10
2018-01-31T12:33:42.796Z,9.95
2018-01-31T12:36:22.436Z,10.10
2018-01-31T12:39:00.054Z,10.27
2018-01-31T12:41:27.527Z,9.76
2018-01-31T12:43:54.689Z,10.52
2018-01-31T12:46:34.521Z,10.57
2018-01-31T12:52:08.291Z,11.14
2018-01-31T12:54:47.885Z,11.19
2018-01-31T12:57:27.382Z,11.01
2018-01-31T13:00:06.880Z,10.99
2018-01-31T13:05:45.127Z,9.97
2018-01-31T13:08:25.266Z,9.97
2018-01-31T13:11:04.674Z,10.71
2018-01-31T13:13:44.187Z,10.43
2018-01-31T13:16:23.786Z,10.14
2018-01-31T13:19:03.311Z,10.93
2018-01-31T13:21:42.778Z,10.78
2018-01-31T13:24:22.244Z,11.17
2018-01-31T13:27:01.820Z,11.10
2018-01-31T13:29:29.573Z,10.43
2018-01-31T13:32:09.241Z,10.37
2018-01-31T13:34:48.995Z,10.43
2018-01-31T13:37:33.993Z,10.61
2018-01-31T13:43:47.030Z,9.64
2018-01-31T13:46:26.571Z,9.52
2018-01-31T13:49:05.855Z,9.38
2018-01-31T13:51:45.221Z,9.77
2018-01-31T13:54:25.208Z,10.35
2018-01-31T13:57:04.654Z,10.41
2018-01-31T13:59:44.077Z,10.34
2018-01-31T14:05:41.765Z,10.49
2018-01-31T14:08:21.232Z,10.27
2018-01-31T14:11:00.853Z,10.06
2018-01-31T14:13:34.610Z,10.38
2018-01-31T14:16:14.346Z,9.92
2018-01-31T14:18:53.909Z,9.95
2018-01-31T14:21:33.412Z,9.52
2018-01-31T14:24:13.050Z,9.64
2018-01-31T14:29:51.588Z,9.34
2018-01-31T14:35:31.049Z,8.84
2018-01-31T14:37:58.292Z,8.43
2018-01-31T14:40:25.443Z,8.27
2018-01-31T14:42:53.473Z,8.09
2018-01-31T14:45:20.807Z,7.91
2018-01-31T14:47:47.942Z,7.58
2018-01-31T14:50:15.134Z,7.42
2018-01-31T14:52:42.226Z,7.23
2018-01-31T14:55:09.364Z,6.88
2018-01-31T14:57:36.486Z,6.93
2018-01-31T15:00:03.645Z,6.74
2018-01-31T15:02:30.749Z,6.55
2018-01-31T15:04:57.965Z,6.58
2018-01-31T15:07:25.139Z,6.30
2018-01-31T15:09:52.414Z,6.17
2018-01-31T15:12:19.617Z,6.10
2018-01-31T15:14:46.806Z,6.04
2018-01-31T15:17:13.984Z,6.08
2018-01-31T15:19:41.182Z,5.99
2018-01-31T15:22:08.474Z,5.85
2018-01-31T15:24:35.649Z,5.74
2018-01-31T15:27:02.816Z,5.94
2018-01-31T15:29:29.930Z,5.97
2018-01-31T15:31:57.074Z,5.71
2018-01-31T15:34:24.213Z,5.67
2018-01-31T15:36:51.402Z,5.61
2018-01-31T15:39:18.546Z,5.54
2018-01-31T15:41:45.724Z,5.67
2018-01-31T15:44:12.854Z,5.57
2018-01-31T15:46:40.357Z,5.48
2018-01-31T15:49:07.475Z,5.39
2018-01-31T15:51:34.644Z,5.25
2018-01-31T15:54:02.992Z,5.10
2018-01-31T15:56:30.128Z,4.82
2018-01-31T15:58:57.336Z,4.65
2018-01-31T16:01:24.543Z,4.58
2018-01-31T16:03:51.723Z,4.46
2018-01-31T16:06:18.912Z,4.39
2018-01-31T16:08:46.082Z,4.41
2018-01-31T16:11:13.276Z,4.45
2018-01-31T16:13:40.761Z,4.37
2018-01-31T16:16:07.931Z,4.45
2018-01-31T16:18:47.478Z,4.40
2018-01-31T16:21:28.217Z,4.57
2018-01-31T16:23:56.030Z,4.29
2018-01-31T16:26:24.432Z,3.80
2018-01-31T16:29:03.966Z,4.07
2018-01-31T16:31:43.506Z,3.86
2018-01-31T16:34:12.190Z,3.80
2018-01-31T16:36:40.197Z,3.65
2018-01-31T16:39:08.104Z,3.70
2018-01-31T16:41:36.028Z,3.69
2018-01-31T16:44:03.841Z,3.59
2018-01-31T16:46:31.670Z,3.59
2018-01-31T16:48:59.506Z,3.41
2018-01-31T16:51:27.540Z,3.43
2018-01-31T16:53:56.428Z,3.43
2018-01-31T16:56:24.357Z,3.37
2018-01-31T16:58:52.249Z,3.36
2018-01-31T17:01:20.185Z,3.43
2018-01-31T17:03:48.041Z,3.27
2018-01-31T17:06:15.981Z,3.20
2018-01-31T17:08:43.819Z,3.08
2018-01-31T17:11:12.408Z,2.49
2018-01-31T17:13:40.159Z,2.51
2018-01-31T17:16:07.991Z,2.59
2018-01-31T17:18:35.714Z,2.57
2018-01-31T17:21:03.579Z,2.55
2018-01-31T17:23:31.358Z,2.57
2018-01-31T17:26:00.192Z,2.70
2018-01-31T17:28:29.200Z,2.58
2018-01-31T17:30:57.017Z,2.40
2018-01-31T17:33:25.594Z,2.55
2018-01-31T17:35:53.390Z,2.40
2018-01-31T17:38:21.159Z,2.49
2018-01-31T17:40:48.940Z,2.47
2018-01-31T17:43:16.669Z,2.34
2018-01-31T17:45:44.477Z,2.01
2018-01-31T17:48:12.336Z,2.01
2018-01-31T17:50:40.155Z,2.08
2018-01-31T17:53:08.043Z,2.09
2018-01-31T17:55:36.133Z,2.18
2018-01-31T17:58:03.861Z,1.99
2018-01-31T18:00:31.792Z,1.87
2018-01-31T18:02:59.591Z,1.95
2018-01-31T18:05:27.387Z,2.03
2018-01-31T18:07:55.244Z,1.97
2018-01-31T18:10:23.102Z,1.90
2018-01-31T18:12:50.840Z,1.98
2018-01-31T18:15:18.615Z,2.06
2018-01-31T18:17:46.395Z,1.81
2018-01-31T18:20:14.215Z,1.56
2018-01-31T18:22:41.899Z,1.74
2018-01-31T18:25:09.726Z,1.71
2018-01-31T18:27:37.552Z,1.83
2018-01-31T18:30:05.460Z,1.50
2018-01-31T18:32:33.468Z,1.70
2018-01-31T18:35:02.070Z,1.69
2018-01-31T18:37:29.958Z,1.56
2018-01-31T18:40:00.180Z,1.60
2018-01-31T18:42:28.638Z,1.53
2018-01-31T18:44:56.627Z,1.46
2018-01-31T18:47:24.669Z,1.36
2018-01-31T18:49:52.622Z,1.38
2018-01-31T18:52:20.414Z,1.31
2018-01-31T18:54:48.282Z,1.34
2018-01-31T18:57:16.256Z,1.35
2018-01-31T18:59:44.267Z,1.67
2018-01-31T19:02:12.321Z,1.57
2018-01-31T19:04:40.102Z,1.39
2018-01-31T19:07:07.956Z,1.20
2018-01-31T19:09:36.560Z,0.95
2018-01-31T19:12:05.657Z,1.09
2018-01-31T19:14:34.384Z,1.15
2018-01-31T19:17:02.155Z,1.11
2018-01-31T19:19:30.025Z,1.14
2018-01-31T19:24:48.308Z,1.18
2018-01-31T19:27:16.111Z,1.06
2018-01-31T19:29:43.820Z,1.02
2018-01-31T19:32:11.607Z,0.90
2018-01-31T19:34:39.482Z,0.91
2018-01-31T19:37:07.499Z,0.86
2018-01-31T19:39:35.305Z,0.92
2018-01-31T19:42:03.397Z,0.90
2018-01-31T19:44:31.320Z,0.85
2018-01-31T19:46:59.183Z,0.69
2018-01-31T19:49:27.086Z,0.79
2018-01-31T19:51:54.807Z,0.79
2018-01-31T19:54:22.582Z,0.68
2018-01-31T19:56:50.362Z,0.61
2018-01-31T19:59:18.271Z,0.53
2018-01-31T20:01:46.969Z,0.58
2018-01-31T20:04:14.733Z,0.60
2018-01-31T20:06:43.421Z,0.50
2018-01-31T20:09:11.183Z,0.37
2018-01-31T20:11:38.946Z,0.45
2018-01-31T20:14:06.818Z,0.39
2018-01-31T20:16:34.610Z,0.44
2018-01-31T20:19:02.578Z,0.41
2018-01-31T20:21:30.393Z,0.41
2018-01-31T20:23:59.090Z,0.50
2018-01-31T20:26:26.928Z,0.51
2018-01-31T20:28:54.790Z,0.29
2018-01-31T20:31:22.643Z,0.34
2018-01-31T20:33:50.361Z,0.45
2018-01-31T20:36:19.956Z,0.56
2018-01-31T20:38:47.742Z,0.59
2018-01-31T20:41:15.508Z,0.58
2018-01-31T20:43:43.443Z,0.44
2018-01-31T20:46:11.216Z,0.40
2018-01-31T20:48:39.003Z,0.15
2018-01-31T20:51:06.779Z,0.07
2018-01-31T20:53:35.665Z,0.17
2018-01-31T20:56:03.381Z,0.27
2018-01-31T20:58:31.152Z,0.26
2018-01-31T21:00:58.883Z,0.33
2018-01-31T21:03:26.575Z,0.26
2018-01-31T21:05:54.415Z,0.22
2018-01-31T21:08:22.123Z,0.23
2018-01-31T21:10:49.893Z,0.18
2018-01-31T21:13:17.637Z,0.18
2018-01-31T21:15:45.415Z,0.23
2018-01-31T21:18:13.126Z,0.20
2018-01-31T21:20:40.875Z,-0.10
2018-01-31T21:23:08.852Z,-0.11
2018-01-31T21:25:36.614Z,-0.24
2018-01-31T21:28:04.345Z,-0.13
2018-01-31T21:30:32.127Z,-0.13
2018-01-31T21:32:59.908Z,-0.16
2018-01-31T21:35:28.853Z,-0.17
2018-01-31T21:37:56.893Z,-0.18
2018-01-31T21:40:24.645Z,-0.29
2018-01-31T21:42:53.444Z,-0.33
2018-01-31T21:45:22.430Z,-0.33
2018-01-31T21:47:50.136Z,-0.42
2018-01-31T21:50:17.892Z,-0.38
2018-01-31T21:52:45.591Z,-0.44
2018-01-31T21:55:13.372Z,-0.72
2018-01-31T21:57:52.716Z,-0.58
2018-01-31T22:00:20.417Z,-0.53
2018-01-31T22:02:48.229Z,-0.42
2018-01-31T22:05:15.965Z,-0.59
2018-01-31T22:07:43.811Z,-0.60
2018-01-31T22:10:11.534Z,-0.57
2018-01-31T22:12:39.310Z,-0.56
2018-01-31T22:15:06.980Z,-0.55
2018-01-31T22:17:34.648Z,-0.61
2018-01-31T22:20:02.451Z,-0.60
2018-01-31T22:22:30.155Z,-0.66
2018-01-31T22:24:57.845Z,-0.88
2018-01-31T22:27:25.610Z,-0.88
2018-01-31T22:29:53.293Z,-0.72
2018-01-31T22:32:21.019Z,-0.77
2018-01-31T22:34:48.776Z,-0.66
2018-01-31T22:37:16.560Z,-0.64
2018-01-31T22:39:44.266Z,-0.60
2018-01-31T22:42:12.122Z,-0.70
2018-01-31T22:44:39.838Z,-0.79
2018-01-31T22:47:07.614Z,-0.78
2018-01-31T22:49:35.339Z,-0.71
2018-01-31T22:52:03.108Z,-0.72
2018-01-31T22:54:30.804Z,-1.10
2018-01-31T22:56:58.644Z,-0.81
2018-01-31T22:59:26.316Z,-0.83
2018-01-31T23:01:53.996Z,-0.82
2018-01-31T23:04:21.725Z,-0.81
2018-01-31T23:06:49.398Z,-0.88
2018-01-31T23:09:17.180Z,-0.89
2018-01-31T23:11:44.906Z,-0.92
2018-01-31T23:14:18.108Z,-0.89
2018-01-31T23:16:45.856Z,-0.83
2018-01-31T23:19:13.525Z,-0.88
2018-01-31T23:21:41.280Z,-1.20
2018-01-31T23:24:08.971Z,-1.15
2018-01-31T23:26:36.735Z,-1.14
2018-01-31T23:29:04.458Z,-1.10
2018-01-31T23:31:32.198Z,-1.01
2018-01-31T23:33:59.865Z,-0.96
2018-01-31T23:36:27.561Z,-1.02
2018-01-31T23:38:55.292Z,-1.01
2018-01-31T23:41:23.062Z,-1.13
2018-01-31T23:43:50.787Z,-1.11
2018-01-31T23:46:18.533Z,-1.36
2018-01-31T23:48:46.322Z,-1.36
2018-01-31T23:51:14.037Z,-1.35
2018-01-31T23:53:41.812Z,-1.24
2018-01-31T23:56:09.641Z,-1.45
2018-01-31T23:58:37.385Z,-1.38
